sensor_id;sensor_type;location;lat;lon;timestamp;temperature;humidity
39079;DHT22;24829;49.208;12.080;2022-09-09T00:03:35;15.10;99.90
39079;DHT22;24829;49.208;12.080;2022-09-09T00:06:14;15.10;99.90
39079;DHT22;24829;49.208;12.080;2022-09-09T00:11:43;15.00;99.90
39079;DHT22;24829;49.208;12.080;2022-09-09T00:14:18;15.00;99.90
39079;DHT22;24829;49.208;12.080;2022-09-09T00:16:51;15.00;99.90
39079;DHT22;24829;49.208;12.080;2022-09-09T00:19:27;15.10;99.90
39079;DHT22;24829;49.208;12.080;2022-09-09T00:24:46;15.00;99.90
39079;DHT22;24829;49.208;12.080;2022-09-09T00:27:48;14.90;99.90
39079;DHT22;24829;49.208;12.080;2022-09-09T00:30:27;14.90;99.90
39079;DHT22;24829;49.208;12.080;2022-09-09T00:33:09;14.90;99.90
39079;DHT22;24829;49.208;12.080;2022-09-09T00:35:40;14.90;99.90
39079;DHT22;24829;49.208;12.080;2022-09-09T00:38:18;14.90;99.90
39079;DHT22;24829;49.208;12.080;2022-09-09T00:41:01;14.90;99.90
39079;DHT22;24829;49.208;12.080;2022-09-09T00:43:30;14.90;99.90
39079;DHT22;24829;49.208;12.080;2022-09-09T00:59:20;14.70;99.90
39079;DHT22;24829;49.208;12.080;2022-09-09T01:01:48;14.60;99.90
39079;DHT22;24829;49.208;12.080;2022-09-09T01:04:20;14.60;99.90
39079;DHT22;24829;49.208;12.080;2022-09-09T01:06:52;14.70;99.90
39079;DHT22;24829;49.208;12.080;2022-09-09T01:09:33;14.70;99.90
39079;DHT22;24829;49.208;12.080;2022-09-09T01:12:16;14.60;99.90
39079;DHT22;24829;49.208;12.080;2022-09-09T01:14:47;14.60;99.90
39079;DHT22;24829;49.208;12.080;2022-09-09T01:26:17;14.50;99.90
39079;DHT22;24829;49.208;12.080;2022-09-09T01:28:51;14.50;99.90
39079;DHT22;24829;49.208;12.080;2022-09-09T01:34:16;14.50;99.90
39079;DHT22;24829;49.208;12.080;2022-09-09T01:36:49;14.50;99.90
39079;DHT22;24829;49.208;12.080;2022-09-09T01:39:17;14.50;99.90
39079;DHT22;24829;49.208;12.080;2022-09-09T01:41:43;14.50;99.90
39079;DHT22;24829;49.208;12.080;2022-09-09T01:44:09;14.60;99.90
39079;DHT22;24829;49.208;12.080;2022-09-09T01:46:35;14.50;99.90
39079;DHT22;24829;49.208;12.080;2022-09-09T01:49:02;14.50;99.90
39079;DHT22;24829;49.208;12.080;2022-09-09T01:51:30;14.50;99.90
39079;DHT22;24829;49.208;12.080;2022-09-09T01:53:55;14.50;99.90
39079;DHT22;24829;49.208;12.080;2022-09-09T01:56:28;14.50;99.90
39079;DHT22;24829;49.208;12.080;2022-09-09T02:06:43;14.50;99.90
39079;DHT22;24829;49.208;12.080;2022-09-09T02:09:12;14.50;99.90
39079;DHT22;24829;49.208;12.080;2022-09-09T02:11:40;14.50;99.90
39079;DHT22;24829;49.208;12.080;2022-09-09T02:14:22;14.50;99.90
39079;DHT22;24829;49.208;12.080;2022-09-09T02:19:22;14.50;99.90
39079;DHT22;24829;49.208;12.080;2022-09-09T02:21:56;14.50;99.90
39079;DHT22;24829;49.208;12.080;2022-09-09T02:24:23;14.40;99.90
39079;DHT22;24829;49.208;12.080;2022-09-09T02:26:51;14.40;99.90
39079;DHT22;24829;49.208;12.080;2022-09-09T02:29:21;14.40;99.90
39079;DHT22;24829;49.208;12.080;2022-09-09T02:31:49;14.40;99.90
39079;DHT22;24829;49.208;12.080;2022-09-09T02:34:17;14.30;99.90
39079;DHT22;24829;49.208;12.080;2022-09-09T02:36:46;14.30;99.90
39079;DHT22;24829;49.208;12.080;2022-09-09T02:39:12;14.30;99.90
39079;DHT22;24829;49.208;12.080;2022-09-09T02:41:41;14.30;99.90
39079;DHT22;24829;49.208;12.080;2022-09-09T02:44:12;14.30;99.90
39079;DHT22;24829;49.208;12.080;2022-09-09T02:56:54;14.20;99.90
39079;DHT22;24829;49.208;12.080;2022-09-09T02:59:21;14.20;99.90
39079;DHT22;24829;49.208;12.080;2022-09-09T03:01:46;14.20;99.90
39079;DHT22;24829;49.208;12.080;2022-09-09T03:04:12;14.20;99.90
39079;DHT22;24829;49.208;12.080;2022-09-09T03:06:38;14.20;99.90
39079;DHT22;24829;49.208;12.080;2022-09-09T03:09:04;14.20;99.90
39079;DHT22;24829;49.208;12.080;2022-09-09T03:11:30;14.20;99.90
39079;DHT22;24829;49.208;12.080;2022-09-09T03:13:55;14.20;99.90
39079;DHT22;24829;49.208;12.080;2022-09-09T03:16:24;14.10;99.90
39079;DHT22;24829;49.208;12.080;2022-09-09T03:18:50;14.10;99.90
39079;DHT22;24829;49.208;12.080;2022-09-09T03:21:15;14.10;99.90
39079;DHT22;24829;49.208;12.080;2022-09-09T03:23:41;14.10;99.90
39079;DHT22;24829;49.208;12.080;2022-09-09T03:26:07;14.10;99.90
39079;DHT22;24829;49.208;12.080;2022-09-09T03:28:32;14.10;99.90
39079;DHT22;24829;49.208;12.080;2022-09-09T03:31:05;14.10;99.90
39079;DHT22;24829;49.208;12.080;2022-09-09T03:33:31;14.10;99.90
39079;DHT22;24829;49.208;12.080;2022-09-09T03:35:57;14.10;99.90
39079;DHT22;24829;49.208;12.080;2022-09-09T03:38:23;14.10;99.90
39079;DHT22;24829;49.208;12.080;2022-09-09T03:40:54;14.10;99.90
39079;DHT22;24829;49.208;12.080;2022-09-09T03:43:26;14.10;99.90
39079;DHT22;24829;49.208;12.080;2022-09-09T03:45:52;14.10;99.90
39079;DHT22;24829;49.208;12.080;2022-09-09T03:48:19;14.10;99.90
39079;DHT22;24829;49.208;12.080;2022-09-09T03:50:49;14.10;99.90
39079;DHT22;24829;49.208;12.080;2022-09-09T03:53:17;14.10;99.90
39079;DHT22;24829;49.208;12.080;2022-09-09T03:55:50;14.00;99.90
39079;DHT22;24829;49.208;12.080;2022-09-09T03:58:20;14.00;99.90
39079;DHT22;24829;49.208;12.080;2022-09-09T04:00:56;14.00;99.90
39079;DHT22;24829;49.208;12.080;2022-09-09T04:03:23;14.00;99.90
39079;DHT22;24829;49.208;12.080;2022-09-09T04:05:54;14.00;99.90
39079;DHT22;24829;49.208;12.080;2022-09-09T04:08:20;13.90;99.90
39079;DHT22;24829;49.208;12.080;2022-09-09T04:10:48;13.90;99.90
39079;DHT22;24829;49.208;12.080;2022-09-09T04:13:14;13.90;99.90
39079;DHT22;24829;49.208;12.080;2022-09-09T04:15:53;13.80;99.90
39079;DHT22;24829;49.208;12.080;2022-09-09T04:18:19;13.80;99.90
39079;DHT22;24829;49.208;12.080;2022-09-09T04:20:50;13.80;99.90
39079;DHT22;24829;49.208;12.080;2022-09-09T04:23:16;13.80;99.90
39079;DHT22;24829;49.208;12.080;2022-09-09T04:25:54;13.80;99.90
39079;DHT22;24829;49.208;12.080;2022-09-09T04:28:22;13.90;99.90
39079;DHT22;24829;49.208;12.080;2022-09-09T04:30:48;13.90;99.90
39079;DHT22;24829;49.208;12.080;2022-09-09T04:33:14;14.00;99.90
39079;DHT22;24829;49.208;12.080;2022-09-09T04:35:45;14.00;99.90
39079;DHT22;24829;49.208;12.080;2022-09-09T04:38:12;14.00;99.90
39079;DHT22;24829;49.208;12.080;2022-09-09T04:40:38;13.90;99.90
39079;DHT22;24829;49.208;12.080;2022-09-09T04:43:08;13.90;99.90
39079;DHT22;24829;49.208;12.080;2022-09-09T04:45:35;13.90;99.90
39079;DHT22;24829;49.208;12.080;2022-09-09T04:48:01;13.90;99.90
39079;DHT22;24829;49.208;12.080;2022-09-09T04:50:27;14.00;99.90
39079;DHT22;24829;49.208;12.080;2022-09-09T04:52:54;14.00;99.90
39079;DHT22;24829;49.208;12.080;2022-09-09T04:55:19;14.10;99.90
39079;DHT22;24829;49.208;12.080;2022-09-09T04:57:45;14.10;99.90
39079;DHT22;24829;49.208;12.080;2022-09-09T05:00:11;14.10;99.90
39079;DHT22;24829;49.208;12.080;2022-09-09T05:02:39;14.20;99.90
39079;DHT22;24829;49.208;12.080;2022-09-09T05:05:08;14.20;99.90
39079;DHT22;24829;49.208;12.080;2022-09-09T05:07:36;14.20;99.90
39079;DHT22;24829;49.208;12.080;2022-09-09T05:10:02;14.20;99.90
39079;DHT22;24829;49.208;12.080;2022-09-09T05:12:31;14.30;99.90
39079;DHT22;24829;49.208;12.080;2022-09-09T05:14:57;14.30;99.90
39079;DHT22;24829;49.208;12.080;2022-09-09T05:17:23;14.30;99.90
39079;DHT22;24829;49.208;12.080;2022-09-09T05:19:49;14.30;99.90
39079;DHT22;24829;49.208;12.080;2022-09-09T05:22:21;14.40;99.90
39079;DHT22;24829;49.208;12.080;2022-09-09T05:24:49;14.40;99.90
39079;DHT22;24829;49.208;12.080;2022-09-09T05:27:17;14.50;99.90
39079;DHT22;24829;49.208;12.080;2022-09-09T05:29:46;14.50;99.90
39079;DHT22;24829;49.208;12.080;2022-09-09T05:32:13;14.50;99.90
39079;DHT22;24829;49.208;12.080;2022-09-09T05:34:40;14.50;99.90
39079;DHT22;24829;49.208;12.080;2022-09-09T05:37:06;14.50;99.90
39079;DHT22;24829;49.208;12.080;2022-09-09T05:39:33;14.50;99.90
39079;DHT22;24829;49.208;12.080;2022-09-09T05:41:59;14.50;99.90
39079;DHT22;24829;49.208;12.080;2022-09-09T05:44:24;14.50;99.90
39079;DHT22;24829;49.208;12.080;2022-09-09T05:46:53;14.60;99.90
39079;DHT22;24829;49.208;12.080;2022-09-09T05:49:19;14.60;99.90
39079;DHT22;24829;49.208;12.080;2022-09-09T05:51:45;14.60;99.90
39079;DHT22;24829;49.208;12.080;2022-09-09T05:54:11;14.70;99.90
39079;DHT22;24829;49.208;12.080;2022-09-09T05:56:40;14.80;99.90
39079;DHT22;24829;49.208;12.080;2022-09-09T05:59:06;14.80;99.90
39079;DHT22;24829;49.208;12.080;2022-09-09T06:01:34;14.90;99.90
39079;DHT22;24829;49.208;12.080;2022-09-09T06:04:00;15.00;99.90
39079;DHT22;24829;49.208;12.080;2022-09-09T06:06:30;15.10;99.90
39079;DHT22;24829;49.208;12.080;2022-09-09T06:08:57;15.10;99.90
39079;DHT22;24829;49.208;12.080;2022-09-09T06:11:30;15.20;99.90
39079;DHT22;24829;49.208;12.080;2022-09-09T06:13:59;15.20;99.90
39079;DHT22;24829;49.208;12.080;2022-09-09T06:16:27;15.20;99.90
39079;DHT22;24829;49.208;12.080;2022-09-09T06:18:56;15.10;99.90
39079;DHT22;24829;49.208;12.080;2022-09-09T06:21:44;15.10;99.90
39079;DHT22;24829;49.208;12.080;2022-09-09T06:24:10;15.10;99.90
39079;DHT22;24829;49.208;12.080;2022-09-09T06:26:38;15.10;99.90
39079;DHT22;24829;49.208;12.080;2022-09-09T06:29:06;15.20;99.90
39079;DHT22;24829;49.208;12.080;2022-09-09T06:31:33;15.20;99.90
39079;DHT22;24829;49.208;12.080;2022-09-09T06:34:00;15.30;99.90
39079;DHT22;24829;49.208;12.080;2022-09-09T06:36:31;15.30;99.90
39079;DHT22;24829;49.208;12.080;2022-09-09T06:38:58;15.40;99.90
39079;DHT22;24829;49.208;12.080;2022-09-09T06:41:26;15.60;99.90
39079;DHT22;24829;49.208;12.080;2022-09-09T06:43:52;15.60;99.90
39079;DHT22;24829;49.208;12.080;2022-09-09T06:46:20;15.70;99.90
39079;DHT22;24829;49.208;12.080;2022-09-09T06:48:47;15.90;99.90
39079;DHT22;24829;49.208;12.080;2022-09-09T06:51:14;16.20;99.90
39079;DHT22;24829;49.208;12.080;2022-09-09T06:53:41;16.40;99.90
39079;DHT22;24829;49.208;12.080;2022-09-09T06:58:40;16.80;99.90
39079;DHT22;24829;49.208;12.080;2022-09-09T07:01:20;17.20;99.90
39079;DHT22;24829;49.208;12.080;2022-09-09T07:03:52;17.60;99.90
39079;DHT22;24829;49.208;12.080;2022-09-09T07:06:28;17.80;99.90
39079;DHT22;24829;49.208;12.080;2022-09-09T07:08:56;17.90;99.90
39079;DHT22;24829;49.208;12.080;2022-09-09T07:11:26;17.90;99.90
39079;DHT22;24829;49.208;12.080;2022-09-09T07:13:53;18.00;99.90
39079;DHT22;24829;49.208;12.080;2022-09-09T07:16:20;18.20;99.90
39079;DHT22;24829;49.208;12.080;2022-09-09T07:18:48;18.10;99.90
39079;DHT22;24829;49.208;12.080;2022-09-09T07:21:16;18.00;99.90
39079;DHT22;24829;49.208;12.080;2022-09-09T07:23:42;17.80;99.90
39079;DHT22;24829;49.208;12.080;2022-09-09T07:26:17;17.70;99.90
39079;DHT22;24829;49.208;12.080;2022-09-09T07:28:44;17.60;99.90
39079;DHT22;24829;49.208;12.080;2022-09-09T07:31:17;17.50;99.90
39079;DHT22;24829;49.208;12.080;2022-09-09T07:33:44;17.40;99.90
39079;DHT22;24829;49.208;12.080;2022-09-09T07:36:14;17.20;99.90
39079;DHT22;24829;49.208;12.080;2022-09-09T07:38:41;17.10;99.90
39079;DHT22;24829;49.208;12.080;2022-09-09T07:41:10;17.00;99.90
39079;DHT22;24829;49.208;12.080;2022-09-09T07:43:39;16.90;99.90
39079;DHT22;24829;49.208;12.080;2022-09-09T07:46:05;16.80;99.90
39079;DHT22;24829;49.208;12.080;2022-09-09T07:48:31;16.80;99.90
39079;DHT22;24829;49.208;12.080;2022-09-09T07:51:09;16.80;99.90
39079;DHT22;24829;49.208;12.080;2022-09-09T07:53:37;16.80;99.90
39079;DHT22;24829;49.208;12.080;2022-09-09T07:56:09;16.80;99.90
39079;DHT22;24829;49.208;12.080;2022-09-09T07:58:39;16.80;99.90
39079;DHT22;24829;49.208;12.080;2022-09-09T08:01:12;16.80;99.90
39079;DHT22;24829;49.208;12.080;2022-09-09T08:03:38;16.70;99.90
39079;DHT22;24829;49.208;12.080;2022-09-09T08:06:06;16.70;99.90
39079;DHT22;24829;49.208;12.080;2022-09-09T08:08:33;16.70;99.90
39079;DHT22;24829;49.208;12.080;2022-09-09T08:11:08;16.70;99.90
39079;DHT22;24829;49.208;12.080;2022-09-09T08:13:38;16.70;99.90
39079;DHT22;24829;49.208;12.080;2022-09-09T08:16:15;16.70;99.90
39079;DHT22;24829;49.208;12.080;2022-09-09T08:18:42;16.70;99.90
39079;DHT22;24829;49.208;12.080;2022-09-09T08:21:19;16.70;99.90
39079;DHT22;24829;49.208;12.080;2022-09-09T08:23:47;16.60;99.90
39079;DHT22;24829;49.208;12.080;2022-09-09T08:26:15;16.60;99.90
39079;DHT22;24829;49.208;12.080;2022-09-09T08:28:42;16.60;99.90
39079;DHT22;24829;49.208;12.080;2022-09-09T08:31:14;16.60;99.90
39079;DHT22;24829;49.208;12.080;2022-09-09T08:33:41;16.60;99.90
39079;DHT22;24829;49.208;12.080;2022-09-09T08:36:09;16.60;99.90
39079;DHT22;24829;49.208;12.080;2022-09-09T08:38:35;16.50;99.90
39079;DHT22;24829;49.208;12.080;2022-09-09T08:55:22;16.60;99.90
39079;DHT22;24829;49.208;12.080;2022-09-09T08:57:51;16.60;99.90
39079;DHT22;24829;49.208;12.080;2022-09-09T09:00:18;16.80;99.90
39079;DHT22;24829;49.208;12.080;2022-09-09T09:02:54;16.90;99.90
39079;DHT22;24829;49.208;12.080;2022-09-09T09:05:46;17.10;99.90
39079;DHT22;24829;49.208;12.080;2022-09-09T09:08:30;17.40;99.90
39079;DHT22;24829;49.208;12.080;2022-09-09T09:10:58;17.80;99.90
39079;DHT22;24829;49.208;12.080;2022-09-09T09:16:30;18.10;99.90
39079;DHT22;24829;49.208;12.080;2022-09-09T09:18:59;18.30;99.90
39079;DHT22;24829;49.208;12.080;2022-09-09T09:21:36;18.60;99.90
39079;DHT22;24829;49.208;12.080;2022-09-09T09:24:04;18.70;99.90
39079;DHT22;24829;49.208;12.080;2022-09-09T09:26:35;18.70;99.90
39079;DHT22;24829;49.208;12.080;2022-09-09T09:29:10;18.50;99.90
39079;DHT22;24829;49.208;12.080;2022-09-09T09:31:37;18.50;99.90
39079;DHT22;24829;49.208;12.080;2022-09-09T09:34:02;18.30;99.90
39079;DHT22;24829;49.208;12.080;2022-09-09T09:36:40;18.30;99.90
39079;DHT22;24829;49.208;12.080;2022-09-09T09:39:06;18.30;99.90
39079;DHT22;24829;49.208;12.080;2022-09-09T09:41:35;18.40;99.90
39079;DHT22;24829;49.208;12.080;2022-09-09T09:44:01;18.70;99.90
39079;DHT22;24829;49.208;12.080;2022-09-09T09:46:28;19.00;99.90
39079;DHT22;24829;49.208;12.080;2022-09-09T09:49:01;19.30;99.90
39079;DHT22;24829;49.208;12.080;2022-09-09T09:51:29;19.50;99.90
39079;DHT22;24829;49.208;12.080;2022-09-09T09:56:40;19.60;99.90
39079;DHT22;24829;49.208;12.080;2022-09-09T09:59:20;19.50;99.90
39079;DHT22;24829;49.208;12.080;2022-09-09T10:01:45;19.50;99.90
39079;DHT22;24829;49.208;12.080;2022-09-09T10:04:20;19.50;99.90
39079;DHT22;24829;49.208;12.080;2022-09-09T10:06:48;19.60;99.90
39079;DHT22;24829;49.208;12.080;2022-09-09T10:09:26;19.50;99.90
39079;DHT22;24829;49.208;12.080;2022-09-09T10:15:10;19.30;99.90
39079;DHT22;24829;49.208;12.080;2022-09-09T10:23:52;19.00;99.90
39079;DHT22;24829;49.208;12.080;2022-09-09T10:35:04;19.50;99.90
39079;DHT22;24829;49.208;12.080;2022-09-09T10:40:13;19.60;99.90
39079;DHT22;24829;49.208;12.080;2022-09-09T10:42:43;19.60;99.90
39079;DHT22;24829;49.208;12.080;2022-09-09T10:50:54;20.30;99.90
39079;DHT22;24829;49.208;12.080;2022-09-09T10:56:09;20.80;99.90
39079;DHT22;24829;49.208;12.080;2022-09-09T11:01:19;21.00;99.90
39079;DHT22;24829;49.208;12.080;2022-09-09T11:03:51;21.20;99.90
39079;DHT22;24829;49.208;12.080;2022-09-09T11:06:21;21.30;99.90
39079;DHT22;24829;49.208;12.080;2022-09-09T11:08:48;21.40;99.90
39079;DHT22;24829;49.208;12.080;2022-09-09T11:11:39;21.60;99.90
39079;DHT22;24829;49.208;12.080;2022-09-09T11:16:56;21.80;99.90
39079;DHT22;24829;49.208;12.080;2022-09-09T11:19:33;21.70;99.90
39079;DHT22;24829;49.208;12.080;2022-09-09T11:22:08;21.70;99.90
39079;DHT22;24829;49.208;12.080;2022-09-09T11:25:05;21.50;99.90
39079;DHT22;24829;49.208;12.080;2022-09-09T11:44:37;21.50;99.90
39079;DHT22;24829;49.208;12.080;2022-09-09T11:47:03;21.30;99.90
39079;DHT22;24829;49.208;12.080;2022-09-09T11:49:49;21.20;99.90
39079;DHT22;24829;49.208;12.080;2022-09-09T11:52:38;20.90;99.90
39079;DHT22;24829;49.208;12.080;2022-09-09T11:57:44;20.60;99.90
39079;DHT22;24829;49.208;12.080;2022-09-09T12:00:40;20.60;99.90
39079;DHT22;24829;49.208;12.080;2022-09-09T12:06:32;20.80;99.90
39079;DHT22;24829;49.208;12.080;2022-09-09T12:09:08;20.90;99.90
39079;DHT22;24829;49.208;12.080;2022-09-09T12:11:34;21.00;99.90
39079;DHT22;24829;49.208;12.080;2022-09-09T12:14:00;21.00;99.90
39079;DHT22;24829;49.208;12.080;2022-09-09T12:16:37;21.00;99.90
39079;DHT22;24829;49.208;12.080;2022-09-09T12:19:19;21.00;99.90
39079;DHT22;24829;49.208;12.080;2022-09-09T12:24:40;20.80;99.90
39079;DHT22;24829;49.208;12.080;2022-09-09T12:30:10;20.90;99.90
39079;DHT22;24829;49.208;12.080;2022-09-09T12:32:36;21.00;99.90
39079;DHT22;24829;49.208;12.080;2022-09-09T12:40:31;20.90;99.90
39079;DHT22;24829;49.208;12.080;2022-09-09T12:43:00;20.90;99.90
39079;DHT22;24829;49.208;12.080;2022-09-09T12:45:29;20.80;99.90
39079;DHT22;24829;49.208;12.080;2022-09-09T12:50:36;20.70;99.90
39079;DHT22;24829;49.208;12.080;2022-09-09T12:53:22;20.80;99.90
39079;DHT22;24829;49.208;12.080;2022-09-09T12:55:57;20.70;99.90
39079;DHT22;24829;49.208;12.080;2022-09-09T12:58:25;20.60;99.90
39079;DHT22;24829;49.208;12.080;2022-09-09T13:00:55;20.50;99.90
39079;DHT22;24829;49.208;12.080;2022-09-09T13:03:25;20.60;99.90
39079;DHT22;24829;49.208;12.080;2022-09-09T13:05:51;20.60;99.90
39079;DHT22;24829;49.208;12.080;2022-09-09T13:08:19;20.70;99.90
39079;DHT22;24829;49.208;12.080;2022-09-09T13:11:00;20.60;99.90
39079;DHT22;24829;49.208;12.080;2022-09-09T13:13:38;20.70;99.90
39079;DHT22;24829;49.208;12.080;2022-09-09T13:16:05;20.70;99.90
39079;DHT22;24829;49.208;12.080;2022-09-09T13:18:35;20.60;99.90
39079;DHT22;24829;49.208;12.080;2022-09-09T13:21:01;20.50;99.90
39079;DHT22;24829;49.208;12.080;2022-09-09T13:23:30;20.50;99.90
39079;DHT22;24829;49.208;12.080;2022-09-09T13:25:59;20.60;99.90
39079;DHT22;24829;49.208;12.080;2022-09-09T13:28:27;20.60;99.90
39079;DHT22;24829;49.208;12.080;2022-09-09T13:31:00;20.50;99.90
39079;DHT22;24829;49.208;12.080;2022-09-09T13:33:34;20.50;99.90
39079;DHT22;24829;49.208;12.080;2022-09-09T13:36:06;20.50;99.90
39079;DHT22;24829;49.208;12.080;2022-09-09T13:38:56;20.40;99.90
39079;DHT22;24829;49.208;12.080;2022-09-09T13:41:33;20.30;99.90
39079;DHT22;24829;49.208;12.080;2022-09-09T13:43:59;20.10;99.90
39079;DHT22;24829;49.208;12.080;2022-09-09T13:48:56;20.20;99.90
39079;DHT22;24829;49.208;12.080;2022-09-09T13:51:35;20.30;99.90
39079;DHT22;24829;49.208;12.080;2022-09-09T13:54:05;20.30;99.90
39079;DHT22;24829;49.208;12.080;2022-09-09T13:56:33;20.30;99.90
39079;DHT22;24829;49.208;12.080;2022-09-09T13:58:58;20.30;99.90
39079;DHT22;24829;49.208;12.080;2022-09-09T14:01:24;20.30;99.90
39079;DHT22;24829;49.208;12.080;2022-09-09T14:03:49;20.30;99.90
39079;DHT22;24829;49.208;12.080;2022-09-09T14:06:16;20.30;99.90
39079;DHT22;24829;49.208;12.080;2022-09-09T14:08:44;20.30;99.90
39079;DHT22;24829;49.208;12.080;2022-09-09T14:11:12;20.30;99.90
39079;DHT22;24829;49.208;12.080;2022-09-09T14:13:38;20.30;99.90
39079;DHT22;24829;49.208;12.080;2022-09-09T14:16:04;20.30;99.90
39079;DHT22;24829;49.208;12.080;2022-09-09T14:18:30;20.40;99.90
39079;DHT22;24829;49.208;12.080;2022-09-09T14:20:56;20.50;99.90
39079;DHT22;24829;49.208;12.080;2022-09-09T14:23:22;20.60;99.90
39079;DHT22;24829;49.208;12.080;2022-09-09T14:25:50;20.60;99.90
39079;DHT22;24829;49.208;12.080;2022-09-09T14:28:16;20.70;99.90
39079;DHT22;24829;49.208;12.080;2022-09-09T14:30:43;20.70;99.90
39079;DHT22;24829;49.208;12.080;2022-09-09T14:33:11;20.60;99.90
39079;DHT22;24829;49.208;12.080;2022-09-09T14:35:36;20.50;99.90
39079;DHT22;24829;49.208;12.080;2022-09-09T14:38:03;20.40;99.90
39079;DHT22;24829;49.208;12.080;2022-09-09T14:40:29;20.30;99.90
39079;DHT22;24829;49.208;12.080;2022-09-09T14:42:54;20.30;99.90
39079;DHT22;24829;49.208;12.080;2022-09-09T14:45:22;20.30;99.90
39079;DHT22;24829;49.208;12.080;2022-09-09T14:47:50;20.30;99.90
39079;DHT22;24829;49.208;12.080;2022-09-09T14:50:16;20.30;99.90
39079;DHT22;24829;49.208;12.080;2022-09-09T14:52:41;20.20;99.90
39079;DHT22;24829;49.208;12.080;2022-09-09T14:55:07;20.20;99.90
39079;DHT22;24829;49.208;12.080;2022-09-09T14:57:33;20.10;99.90
39079;DHT22;24829;49.208;12.080;2022-09-09T15:00:02;20.10;99.90
39079;DHT22;24829;49.208;12.080;2022-09-09T15:02:28;20.10;99.90
39079;DHT22;24829;49.208;12.080;2022-09-09T15:04:55;20.10;99.90
39079;DHT22;24829;49.208;12.080;2022-09-09T15:07:23;20.10;99.90
39079;DHT22;24829;49.208;12.080;2022-09-09T15:09:49;20.10;99.90
39079;DHT22;24829;49.208;12.080;2022-09-09T15:12:15;20.10;99.90
39079;DHT22;24829;49.208;12.080;2022-09-09T15:14:40;20.00;99.90
39079;DHT22;24829;49.208;12.080;2022-09-09T15:17:06;20.00;99.90
39079;DHT22;24829;49.208;12.080;2022-09-09T15:19:32;20.10;99.90
39079;DHT22;24829;49.208;12.080;2022-09-09T15:21:58;20.10;99.90
39079;DHT22;24829;49.208;12.080;2022-09-09T15:24:25;20.10;99.90
39079;DHT22;24829;49.208;12.080;2022-09-09T15:26:52;20.20;99.90
39079;DHT22;24829;49.208;12.080;2022-09-09T15:29:19;20.10;99.90
39079;DHT22;24829;49.208;12.080;2022-09-09T15:31:44;20.10;99.90
39079;DHT22;24829;49.208;12.080;2022-09-09T15:34:11;20.00;99.90
39079;DHT22;24829;49.208;12.080;2022-09-09T15:39:03;20.00;99.90
39079;DHT22;24829;49.208;12.080;2022-09-09T15:41:29;19.90;99.90
39079;DHT22;24829;49.208;12.080;2022-09-09T15:43:57;19.80;99.90
39079;DHT22;24829;49.208;12.080;2022-09-09T15:46:41;19.90;99.90
39079;DHT22;24829;49.208;12.080;2022-09-09T15:49:17;19.80;99.90
39079;DHT22;24829;49.208;12.080;2022-09-09T15:51:46;19.80;99.90
39079;DHT22;24829;49.208;12.080;2022-09-09T15:54:14;19.70;99.90
39079;DHT22;24829;49.208;12.080;2022-09-09T15:56:42;19.80;99.90
39079;DHT22;24829;49.208;12.080;2022-09-09T15:59:07;19.70;99.90
39079;DHT22;24829;49.208;12.080;2022-09-09T16:01:33;19.80;99.90
39079;DHT22;24829;49.208;12.080;2022-09-09T16:03:59;19.70;99.90
39079;DHT22;24829;49.208;12.080;2022-09-09T16:06:26;19.70;99.90
39079;DHT22;24829;49.208;12.080;2022-09-09T16:08:55;19.60;99.90
39079;DHT22;24829;49.208;12.080;2022-09-09T16:11:27;19.60;99.90
39079;DHT22;24829;49.208;12.080;2022-09-09T16:13:53;19.60;99.90
39079;DHT22;24829;49.208;12.080;2022-09-09T16:16:21;19.60;99.90
39079;DHT22;24829;49.208;12.080;2022-09-09T16:18:49;19.60;99.90
39079;DHT22;24829;49.208;12.080;2022-09-09T16:21:27;19.60;99.90
39079;DHT22;24829;49.208;12.080;2022-09-09T16:23:58;19.60;99.90
39079;DHT22;24829;49.208;12.080;2022-09-09T16:26:29;19.50;99.90
39079;DHT22;24829;49.208;12.080;2022-09-09T16:28:55;19.50;99.90
39079;DHT22;24829;49.208;12.080;2022-09-09T16:31:22;19.50;99.90
39079;DHT22;24829;49.208;12.080;2022-09-09T16:33:49;19.50;99.90
39079;DHT22;24829;49.208;12.080;2022-09-09T16:36:23;19.50;99.90
39079;DHT22;24829;49.208;12.080;2022-09-09T16:38:54;19.40;99.90
39079;DHT22;24829;49.208;12.080;2022-09-09T16:41:20;19.20;99.90
39079;DHT22;24829;49.208;12.080;2022-09-09T16:43:46;19.00;99.90
39079;DHT22;24829;49.208;12.080;2022-09-09T16:46:17;18.70;99.90
39079;DHT22;24829;49.208;12.080;2022-09-09T16:48:44;18.30;99.90
39079;DHT22;24829;49.208;12.080;2022-09-09T16:51:18;18.10;99.90
39079;DHT22;24829;49.208;12.080;2022-09-09T16:53:44;17.70;99.90
39079;DHT22;24829;49.208;12.080;2022-09-09T16:56:12;17.40;99.90
39079;DHT22;24829;49.208;12.080;2022-09-09T16:58:38;17.10;99.90
39079;DHT22;24829;49.208;12.080;2022-09-09T17:01:04;16.80;99.90
39079;DHT22;24829;49.208;12.080;2022-09-09T17:03:31;16.60;99.90
39079;DHT22;24829;49.208;12.080;2022-09-09T17:05:59;16.30;99.90
39079;DHT22;24829;49.208;12.080;2022-09-09T17:08:30;16.20;99.90
39079;DHT22;24829;49.208;12.080;2022-09-09T17:10:57;16.10;99.90
39079;DHT22;24829;49.208;12.080;2022-09-09T17:13:23;16.00;99.90
39079;DHT22;24829;49.208;12.080;2022-09-09T17:15:50;16.00;99.90
39079;DHT22;24829;49.208;12.080;2022-09-09T17:18:15;16.00;99.90
39079;DHT22;24829;49.208;12.080;2022-09-09T17:20:42;16.00;99.90
39079;DHT22;24829;49.208;12.080;2022-09-09T17:23:10;15.90;99.90
39079;DHT22;24829;49.208;12.080;2022-09-09T17:25:36;15.80;99.90
39079;DHT22;24829;49.208;12.080;2022-09-09T17:28:05;15.60;99.90
39079;DHT22;24829;49.208;12.080;2022-09-09T17:30:34;15.40;99.90
39079;DHT22;24829;49.208;12.080;2022-09-09T17:33:00;15.40;99.90
39079;DHT22;24829;49.208;12.080;2022-09-09T17:35:26;15.20;99.90
39079;DHT22;24829;49.208;12.080;2022-09-09T17:37:53;15.10;99.90
39079;DHT22;24829;49.208;12.080;2022-09-09T17:40:20;15.20;99.90
39079;DHT22;24829;49.208;12.080;2022-09-09T17:42:45;15.20;99.90
39079;DHT22;24829;49.208;12.080;2022-09-09T17:45:12;15.30;99.90
39079;DHT22;24829;49.208;12.080;2022-09-09T17:47:38;15.30;99.90
39079;DHT22;24829;49.208;12.080;2022-09-09T17:50:05;15.40;99.90
39079;DHT22;24829;49.208;12.080;2022-09-09T17:52:31;15.50;99.90
39079;DHT22;24829;49.208;12.080;2022-09-09T17:54:57;15.70;99.90
39079;DHT22;24829;49.208;12.080;2022-09-09T17:57:23;15.70;99.90
39079;DHT22;24829;49.208;12.080;2022-09-09T17:59:49;15.70;99.90
39079;DHT22;24829;49.208;12.080;2022-09-09T18:02:14;15.70;99.90